Time;durP1;ratioP1;P1;durP2;ratioP2;P2;SDS_P1;SDS_P2;PMS_P1;PMS_P2;Temp;Humidity;BMP_temperature;BMP_pressure;BME280_temperature;BME280_humidity;BME280_pressure;Samples;Min_cycle;Max_cycle;Signal;HPM_P1;HPM_P2
2024/01/28 00:01:38;;;;;;;0.40;0.40;;;;;;;4.54;65.53;95835.69;5015890;28;20600;-68
2024/01/28 00:04:03;;;;;;;0.40;0.40;;;;;;;4.46;65.16;95818.19;5032906;28;20219;-67
2024/01/28 00:06:29;;;;;;;0.40;0.40;;;;;;;4.40;65.29;95839.66;5033637;28;20179;-67
2024/01/28 00:08:54;;;;;;;0.50;0.50;;;;;;;4.26;65.88;95837.53;5033703;28;20213;-67
2024/01/28 00:11:20;;;;;;;0.40;0.40;;;;;;;4.39;65.71;95839.78;5015567;28;20248;-67
2024/01/28 00:13:46;;;;;;;0.70;0.70;;;;;;;4.40;65.83;95838.84;5013846;28;20180;-67
2024/01/28 00:16:16;;;;;;;10.20;2.70;;;;;;;4.41;65.99;95843.06;5013719;28;20176;-67
2024/01/28 00:18:41;;;;;;;0.50;0.50;;;;;;;4.38;66.57;95843.38;5013756;28;20238;-67
2024/01/28 00:21:07;;;;;;;0.57;0.57;;;;;;;4.22;66.26;95838.81;5013645;28;20601;-67
2024/01/28 00:23:33;;;;;;;1.20;1.13;;;;;;;4.15;66.38;95841.16;5013467;28;20723;-67
2024/01/28 00:25:59;;;;;;;1.17;0.50;;;;;;;3.80;67.56;95838.50;5013225;28;20679;-67
2024/01/28 00:28:24;;;;;;;0.50;0.50;;;;;;;3.87;68.30;95857.81;4995861;28;20175;-67
2024/01/28 00:30:50;;;;;;;0.40;0.40;;;;;;;3.88;68.03;95830.81;5013428;28;20173;-67
2024/01/28 00:33:15;;;;;;;0.40;0.40;;;;;;;4.05;68.23;95858.66;5013757;28;20649;-68
2024/01/28 00:35:41;;;;;;;0.50;0.50;;;;;;;4.04;67.92;95857.03;5013389;28;20279;-67
2024/01/28 00:38:06;;;;;;;0.50;0.50;;;;;;;4.06;68.09;95855.09;5013236;28;20672;-67
2024/01/28 00:40:32;;;;;;;0.70;0.70;;;;;;;4.20;67.26;95863.38;5013275;28;20204;-67
2024/01/28 00:42:57;;;;;;;0.50;0.50;;;;;;;4.18;67.13;95845.28;5013270;28;20180;-67
2024/01/28 00:45:23;;;;;;;0.70;0.70;;;;;;;4.14;67.34;95833.53;5012992;28;20204;-67
2024/01/28 00:47:49;;;;;;;0.40;0.40;;;;;;;4.30;67.10;95854.53;5013148;28;20645;-67
2024/01/28 00:50:14;;;;;;;0.40;0.40;;;;;;;4.10;67.39;95838.19;5028243;28;20716;-67
2024/01/28 00:52:40;;;;;;;0.40;0.40;;;;;;;4.16;67.71;95852.41;5012928;28;20263;-67
2024/01/28 00:55:06;;;;;;;0.40;0.40;;;;;;;4.05;68.15;95856.06;5013100;28;20173;-67
2024/01/28 00:57:31;;;;;;;0.40;0.40;;;;;;;4.11;68.56;95852.03;5008135;28;20215;-67
2024/01/28 00:59:58;;;;;;;0.40;0.40;;;;;;;4.17;68.15;95867.91;5012863;28;20191;-67
2024/01/28 01:02:23;;;;;;;0.40;0.40;;;;;;;4.18;68.21;95866.94;5019713;28;20183;-67
2024/01/28 01:04:49;;;;;;;0.40;0.40;;;;;;;4.30;67.92;95877.97;5016359;28;20207;-67
2024/01/28 01:07:14;;;;;;;0.50;0.50;;;;;;;4.33;67.56;95888.09;5023255;28;20206;-67
2024/01/28 01:09:41;;;;;;;0.40;0.40;;;;;;;4.15;68.05;95856.00;5020803;28;20207;-67
2024/01/28 01:12:06;;;;;;;0.40;0.40;;;;;;;4.29;68.47;95881.56;5013473;28;20180;-68
2024/01/28 01:14:35;;;;;;;0.40;0.40;;;;;;;4.30;68.27;95871.94;5024097;28;20175;-67
2024/01/28 01:17:02;;;;;;;0.40;0.40;;;;;;;4.29;68.50;95870.31;5016478;28;20627;-67
2024/01/28 01:19:27;;;;;;;0.40;0.40;;;;;;;4.29;68.34;95872.91;5020774;28;20179;-67
2024/01/28 01:21:53;;;;;;;0.40;0.40;;;;;;;4.23;68.53;95870.91;5012465;28;20180;-67
2024/01/28 01:24:18;;;;;;;0.60;0.60;;;;;;;4.12;69.28;95866.72;5014161;28;20279;-67
2024/01/28 01:26:44;;;;;;;0.50;0.50;;;;;;;4.29;68.73;95870.31;5024289;28;20234;-67
2024/01/28 01:29:09;;;;;;;0.50;0.50;;;;;;;4.26;68.70;95873.19;5021334;28;20251;-67
2024/01/28 01:31:34;;;;;;;0.50;0.50;;;;;;;4.22;69.07;95877.09;4995782;28;20262;-67
2024/01/28 01:34:00;;;;;;;0.40;0.40;;;;;;;4.19;68.99;95870.38;5012188;28;20244;-67
2024/01/28 01:36:25;;;;;;;0.50;0.50;;;;;;;4.29;68.82;95876.34;5016020;28;20180;-67
2024/01/28 01:38:51;;;;;;;1.27;1.27;;;;;;;4.28;68.66;95873.88;5019448;28;20326;-67
2024/01/28 01:41:16;;;;;;;0.50;0.50;;;;;;;4.23;69.07;95870.91;5012217;28;20176;-67
2024/01/28 01:43:42;;;;;;;0.80;0.80;;;;;;;4.18;69.12;95859.13;5011873;28;20188;-67
2024/01/28 01:46:10;;;;;;;0.60;0.60;;;;;;;4.29;69.04;95863.31;5012051;28;20182;-67
2024/01/28 01:48:36;;;;;;;0.50;0.50;;;;;;;4.29;68.89;95865.91;5006388;28;20180;-67
2024/01/28 01:51:01;;;;;;;0.40;0.40;;;;;;;4.27;68.86;95862.63;4994385;28;20191;-67
2024/01/28 01:53:28;;;;;;;0.50;0.50;;;;;;;4.25;68.81;95863.75;5011694;28;20255;-67
2024/01/28 01:55:54;;;;;;;0.60;0.60;;;;;;;4.27;68.98;95869.63;5011892;28;20179;-67
2024/01/28 01:58:19;;;;;;;0.40;0.40;;;;;;;4.20;69.00;95869.41;5013098;28;20185;-67
2024/01/28 02:00:45;;;;;;;0.77;0.77;;;;;;;4.16;69.56;95866.25;5011854;28;20667;-67
2024/01/28 02:03:12;;;;;;;0.40;0.40;;;;;;;4.05;69.43;95878.69;5015832;28;20175;-67
2024/01/28 02:05:38;;;;;;;0.50;0.50;;;;;;;3.92;69.72;95878.19;5030963;28;20191;-67
2024/01/28 02:08:05;;;;;;;0.50;0.50;;;;;;;3.97;70.01;95884.63;5021508;28;20180;-67
2024/01/28 02:10:30;;;;;;;0.67;0.67;;;;;;;3.96;70.34;95885.59;5019472;28;20186;-67
2024/01/28 02:12:56;;;;;;;0.50;0.50;;;;;;;4.00;70.05;95886.09;5013310;28;20176;-67
2024/01/28 02:15:21;;;;;;;0.60;0.60;;;;;;;4.04;70.03;95892.66;5029683;28;20203;-67
2024/01/28 02:17:47;;;;;;;0.40;0.40;;;;;;;3.96;70.39;95885.59;5027428;28;20190;-67
2024/01/28 02:20:12;;;;;;;0.50;0.50;;;;;;;4.07;69.34;95887.16;5016545;28;20566;-67
2024/01/28 02:22:38;;;;;;;0.40;0.40;;;;;;;3.82;69.65;95854.78;5014345;28;20199;-67
2024/01/28 02:25:05;;;;;;;0.50;0.50;;;;;;;4.04;69.57;95890.88;5013203;28;20215;-68
2024/01/28 02:27:30;;;;;;;0.47;0.47;;;;;;;4.03;69.37;95888.41;5011761;28;20640;-67
2024/01/28 02:29:56;;;;;;;0.50;0.50;;;;;;;4.06;70.01;95896.78;5013110;28;20214;-67
2024/01/28 02:32:21;;;;;;;0.50;0.50;;;;;;;4.02;69.61;95899.81;5028976;28;20578;-67
2024/01/28 02:34:47;;;;;;;0.50;0.50;;;;;;;3.92;69.52;95884.22;5026294;28;20204;-67
2024/01/28 02:37:12;;;;;;;0.40;0.40;;;;;;;4.02;69.39;95898.03;5011163;28;20196;-67
2024/01/28 02:39:40;;;;;;;0.50;0.50;;;;;;;4.12;69.21;95911.00;5011196;28;20200;-67
2024/01/28 02:42:07;;;;;;;0.50;0.50;;;;;;;4.01;69.71;95904.19;5011092;28;20180;-67
2024/01/28 02:44:32;;;;;;;0.40;0.40;;;;;;;3.95;69.70;95910.00;5010959;28;20197;-67
2024/01/28 02:46:58;;;;;;;0.40;0.40;;;;;;;3.86;69.97;95895.22;5011149;28;20174;-67
2024/01/28 02:49:24;;;;;;;0.50;0.50;;;;;;;4.02;70.28;95907.63;5010896;28;20868;-67
2024/01/28 02:51:52;;;;;;;0.97;0.97;;;;;;;4.09;69.45;95912.09;5010883;28;20167;-67
2024/01/28 02:54:18;;;;;;;0.50;0.50;;;;;;;4.06;69.78;95901.16;5011156;28;20234;-67
2024/01/28 02:56:44;;;;;;;0.53;0.53;;;;;;;4.16;69.23;95912.34;5026159;28;20207;-67
2024/01/28 02:59:10;;;;;;;0.40;0.40;;;;;;;4.12;69.42;95911.00;5015142;28;20176;-67
2024/01/28 03:01:46;;;;;;;0.77;0.77;;;;;;;4.07;69.60;95915.81;5010812;28;20179;-67
2024/01/28 03:04:11;;;;;;;0.77;0.77;;;;;;;4.03;69.34;95917.91;5010762;28;20581;-67
2024/01/28 03:06:37;;;;;;;0.40;0.40;;;;;;;4.02;69.68;95923.25;5010823;28;20157;-67
2024/01/28 03:09:04;;;;;;;0.40;0.40;;;;;;;3.80;70.20;95904.41;5010868;28;20645;-67
2024/01/28 03:11:30;;;;;;;1.03;1.03;;;;;;;3.93;70.05;95926.72;4993145;28;20176;-67
2024/01/28 03:13:55;;;;;;;0.40;0.40;;;;;;;3.89;69.92;95934.00;5010729;28;20589;-67
2024/01/28 03:16:22;;;;;;;0.40;0.40;;;;;;;4.04;69.85;95932.56;5010996;28;20858;-68
2024/01/28 03:18:50;;;;;;;0.40;0.40;;;;;;;4.08;69.84;95939.13;5010931;28;20168;-67
2024/01/28 03:21:17;;;;;;;0.40;0.40;;;;;;;4.13;69.41;95938.69;5010918;28;20735;-67
2024/01/28 03:23:45;;;;;;;1.90;1.27;;;;;;;4.20;69.09;95942.38;5025315;28;20195;-67
2024/01/28 03:26:13;;;;;;;1.53;1.53;;;;;;;4.04;69.09;95927.34;5009914;28;20227;-68
2024/01/28 03:28:42;;;;;;;1.00;1.00;;;;;;;4.17;69.33;95946.06;5018289;28;20192;-67
2024/01/28 03:31:11;;;;;;;0.50;0.50;;;;;;;4.11;69.91;95943.22;5028267;28;20186;-67
2024/01/28 03:33:36;;;;;;;0.50;0.50;;;;;;;4.08;69.82;95940.91;5028645;28;20179;-68
2024/01/28 03:36:02;;;;;;;0.40;0.40;;;;;;;3.82;69.90;95919.91;5012673;28;20184;-67
2024/01/28 03:38:27;;;;;;;0.40;0.40;;;;;;;3.93;70.15;95940.56;5023586;28;20259;-67
2024/01/28 03:40:53;;;;;;;0.70;0.70;;;;;;;3.99;70.61;95941.75;5010431;28;20172;-67
2024/01/28 03:43:20;;;;;;;0.40;0.40;;;;;;;3.80;70.09;95922.63;5010687;28;20619;-68
2024/01/28 03:45:51;;;;;;;0.40;0.40;;;;;;;3.85;70.76;95937.03;5010519;28;20275;-67
2024/01/28 03:48:22;;;;;;;0.40;0.40;;;;;;;3.95;70.23;95938.63;4997117;28;20189;-68
2024/01/28 03:50:49;;;;;;;0.40;0.40;;;;;;;3.72;70.32;95924.31;4991075;28;20185;-68
2024/01/28 03:53:17;;;;;;;0.50;0.50;;;;;;;3.83;70.18;95946.75;5029100;28;20187;-68
2024/01/28 03:55:49;;;;;;;0.50;0.50;;;;;;;3.55;71.40;95949.28;5022811;28;20172;-67
2024/01/28 03:58:27;;;;;;;0.50;0.50;;;;;;;3.50;71.53;95950.69;5012892;28;20176;-68
2024/01/28 04:01:05;;;;;;;0.40;0.40;;;;;;;3.51;71.58;95947.13;5009319;28;20184;-67
2024/01/28 04:03:31;;;;;;;0.50;0.50;;;;;;;3.49;71.47;95951.66;5014055;28;20168;-68
2024/01/28 04:05:56;;;;;;;0.50;0.50;;;;;;;3.38;71.47;95958.66;5013965;28;20193;-67
2024/01/28 04:08:27;;;;;;;0.40;0.40;;;;;;;2.93;73.00;95929.81;4996359;28;20272;-68
2024/01/28 04:11:08;;;;;;;0.40;0.40;;;;;;;3.16;73.14;95968.53;5013909;28;20180;-67
2024/01/28 04:14:07;;;;;;;0.93;0.93;;;;;;;3.04;73.25;95973.88;5013312;28;20184;-67
2024/01/28 04:17:11;;;;;;;0.50;0.50;;;;;;;3.13;72.85;95969.63;4993489;28;20613;-67
2024/01/28 04:19:56;;;;;;;0.50;0.50;;;;;;;2.91;73.84;95975.94;4917849;29;20190;-67
2024/01/28 04:22:54;;;;;;;0.40;0.40;;;;;;;2.75;74.31;95977.44;4934131;29;20183;-67
2024/01/28 04:39:44;;;;;;;0.50;0.50;;;;;;;2.58;75.61;96005.72;4830707;29;20185;-67
2024/01/28 04:43:02;;;;;;;0.80;0.80;;;;;;;2.57;75.52;96003.25;4803472;29;20295;-67
2024/01/28 04:46:38;;;;;;;0.40;0.40;;;;;;;2.53;75.71;96009.66;4798797;29;20311;-67
2024/01/28 04:53:41;;;;;;;0.80;0.80;;;;;;;2.50;75.87;96010.75;4714949;30;20751;-67
2024/01/28 05:00:46;;;;;;;0.43;0.43;;;;;;;2.56;75.55;96010.22;4732201;30;20206;-67
2024/01/28 08:53:21;;;;;;;0.50;0.50;;;;;;;5.68;65.22;96176.88;4970162;28;20288;-66
2024/01/28 08:56:14;;;;;;;0.70;0.70;;;;;;;5.67;65.56;96177.84;4993543;28;20173;-66
2024/01/28 08:58:49;;;;;;;0.30;0.30;;;;;;;5.76;65.69;96176.13;4972282;28;20198;-66
2024/01/28 09:01:51;;;;;;;0.70;0.70;;;;;;;5.95;65.22;96183.84;4970536;28;20197;-66
2024/01/28 12:22:11;;;;;;;0.50;0.50;;;;;;;6.01;63.45;96150.09;5022387;28;20678;-69
2024/01/28 12:24:36;;;;;;;0.70;0.60;;;;;;;6.06;63.15;96149.63;5033015;28;20294;-67
2024/01/28 12:27:04;;;;;;;0.60;0.60;;;;;;;5.83;63.04;96130.13;5033364;28;20644;-67
2024/01/28 12:29:30;;;;;;;0.43;0.43;;;;;;;5.97;63.99;96146.13;5015556;28;20618;-67
2024/01/28 12:31:56;;;;;;;2.13;2.00;;;;;;;5.90;64.36;96137.25;5033162;28;20295;-68
2024/01/28 12:34:26;;;;;;;0.40;0.40;;;;;;;5.91;64.45;96149.34;5033261;28;20254;-68
2024/01/28 12:36:51;;;;;;;2.57;1.80;;;;;;;5.86;64.21;96141.13;5015420;28;20570;-68
2024/01/28 12:39:16;;;;;;;0.40;0.40;;;;;;;5.90;64.41;96146.88;5033111;28;20254;-68
2024/01/28 12:41:42;;;;;;;0.70;0.70;;;;;;;5.75;64.75;96150.97;5033163;28;20559;-67
2024/01/28 12:44:07;;;;;;;0.40;0.40;;;;;;;5.74;64.76;96155.38;5032917;28;20178;-68
2024/01/28 12:46:33;;;;;;;2.57;1.93;;;;;;;5.82;64.58;96152.81;5032544;28;20940;-68
2024/01/28 12:49:00;;;;;;;0.70;0.70;;;;;;;5.82;64.12;96146.78;5032881;28;20184;-68
2024/01/28 12:51:26;;;;;;;0.40;0.40;;;;;;;5.83;64.09;96143.19;5032086;28;20175;-68
2024/01/28 12:53:51;;;;;;;0.40;0.40;;;;;;;6.00;63.64;96145.84;5032701;28;20213;-68
2024/01/28 12:56:19;;;;;;;1.13;1.03;;;;;;;5.81;63.72;96150.34;5032610;28;20250;-68
2024/01/28 12:58:45;;;;;;;0.80;0.80;;;;;;;5.64;64.25;96136.31;5032690;28;20212;-68
2024/01/28 13:01:10;;;;;;;0.40;0.40;;;;;;;5.76;64.86;96155.22;5032555;28;20625;-68
2024/01/28 13:03:36;;;;;;;0.53;0.53;;;;;;;5.84;63.90;96150.88;5032517;28;20238;-68
2024/01/28 13:06:02;;;;;;;0.40;0.40;;;;;;;5.53;64.24;96140.00;5032454;28;20249;-68
2024/01/28 13:08:28;;;;;;;0.73;0.73;;;;;;;5.58;64.34;96147.38;5032871;28;20335;-68
2024/01/28 13:11:00;;;;;;;0.50;0.50;;;;;;;5.42;65.46;96161.09;5032423;28;20254;-68
2024/01/28 13:13:26;;;;;;;0.50;0.50;;;;;;;5.26;66.01;96159.13;5032304;28;20180;-69
2024/01/28 13:15:51;;;;;;;0.40;0.40;;;;;;;5.15;65.95;96153.25;5032290;28;20603;-68
2024/01/28 13:18:17;;;;;;;0.40;0.40;;;;;;;5.01;66.51;96154.56;5032240;28;20186;-68
2024/01/28 13:20:42;;;;;;;3.53;3.33;;;;;;;5.08;66.38;96153.03;5031967;28;20168;-68
2024/01/28 13:23:07;;;;;;;0.47;0.47;;;;;;;5.24;66.29;96160.22;5031965;28;20584;-68
2024/01/28 13:25:33;;;;;;;0.57;0.57;;;;;;;5.21;66.54;96161.31;5032112;28;20242;-68
2024/01/28 13:27:58;;;;;;;0.40;0.40;;;;;;;5.22;66.35;96157.75;5031931;28;20184;-68
2024/01/28 13:30:24;;;;;;;1.27;1.07;;;;;;;5.21;66.33;96156.09;5032290;28;20183;-67
2024/01/28 13:32:49;;;;;;;0.40;0.40;;;;;;;5.29;65.92;96161.41;5032176;28;20176;-66
2024/01/28 13:35:15;;;;;;;0.33;0.33;;;;;;;5.11;66.48;96133.63;5031143;28;20182;-67
2024/01/28 13:37:44;;;;;;;0.50;0.50;;;;;;;5.15;66.20;96159.31;5032008;28;20192;-68
2024/01/28 13:40:12;;;;;;;0.40;0.40;;;;;;;5.26;66.67;96166.94;5051442;28;20739;-68
2024/01/28 13:42:38;;;;;;;0.50;0.50;;;;;;;5.30;66.69;96164.84;5051883;28;20643;-68
2024/01/28 13:45:06;;;;;;;2.00;0.70;;;;;;;5.21;66.73;96148.28;5051691;28;20198;-68
2024/01/28 13:47:36;;;;;;;0.30;0.30;;;;;;;5.37;66.67;96172.91;5051849;28;20562;-67
2024/01/28 13:50:01;;;;;;;0.50;0.50;;;;;;;5.41;66.32;96172.50;5018810;28;20187;-66
2024/01/28 13:52:27;;;;;;;2.40;2.30;;;;;;;5.31;66.48;96169.94;5038111;28;20616;-66
2024/01/28 13:54:54;;;;;;;0.50;0.50;;;;;;;5.37;66.56;96173.75;5047251;28;20250;-67
2024/01/28 13:57:20;;;;;;;0.83;0.83;;;;;;;5.14;67.21;96144.59;5033846;28;20168;-67
2024/01/28 13:59:46;;;;;;;2.50;2.40;;;;;;;5.35;67.11;96175.69;5043385;28;20214;-67
2024/01/28 14:02:12;;;;;;;0.47;0.47;;;;;;;5.21;67.25;96176.16;5041143;28;20275;-68
2024/01/28 14:04:37;;;;;;;0.83;0.83;;;;;;;5.19;67.69;96178.13;5035502;28;20195;-68
2024/01/28 14:07:03;;;;;;;0.50;0.50;;;;;;;5.38;67.03;96182.41;5047126;28;20989;-67
2024/01/28 14:09:28;;;;;;;1.00;0.97;;;;;;;5.23;67.13;96179.47;5034807;28;20627;-68
2024/01/28 14:11:54;;;;;;;0.60;0.60;;;;;;;5.20;67.43;96174.50;5041441;28;20200;-67
2024/01/28 14:14:20;;;;;;;1.77;1.67;;;;;;;5.26;67.46;96171.34;5042256;28;20560;-68
2024/01/28 14:16:45;;;;;;;0.83;0.83;;;;;;;5.21;67.88;96171.78;5034652;28;20183;-68
2024/01/28 14:19:11;;;;;;;0.40;0.40;;;;;;;4.98;68.53;96177.50;5046265;28;20203;-67
2024/01/28 14:21:37;;;;;;;0.40;0.40;;;;;;;5.19;68.43;96180.72;5036276;28;20662;-68
2024/01/28 14:24:03;;;;;;;0.40;0.40;;;;;;;5.14;68.49;96149.00;5022365;28;20300;-69
2024/01/28 14:26:28;;;;;;;1.50;1.50;;;;;;;5.44;67.93;96193.09;5041845;28;21026;-68
2024/01/28 14:28:56;;;;;;;2.40;1.70;;;;;;;5.45;67.63;96189.50;5033342;28;20218;-69
2024/01/28 14:31:22;;;;;;;0.40;0.40;;;;;;;5.26;67.87;96194.84;5046032;28;20176;-68
2024/01/28 14:33:48;;;;;;;0.50;0.50;;;;;;;4.91;69.22;96185.09;5019411;28;20182;-69
2024/01/28 14:36:14;;;;;;;2.50;2.40;;;;;;;4.97;69.30;96196.75;5038654;28;20183;-69
2024/01/28 14:38:41;;;;;;;0.60;0.60;;;;;;;4.85;70.13;96193.47;5044376;28;20183;-70
2024/01/28 14:41:06;;;;;;;0.50;0.50;;;;;;;4.85;70.28;96191.69;5033023;28;20671;-68
2024/01/28 14:43:32;;;;;;;1.00;1.00;;;;;;;4.58;71.49;96178.63;5026621;28;20183;-68
2024/01/28 14:45:59;;;;;;;1.90;1.80;;;;;;;4.65;71.29;96184.09;5038277;28;20195;-69
2024/01/28 14:48:29;;;;;;;1.07;1.00;;;;;;;4.81;70.63;96198.16;5036228;28;20176;-67
2024/01/28 14:50:55;;;;;;;0.60;0.60;;;;;;;4.78;71.15;96189.78;5046065;28;20201;-67
2024/01/28 14:53:21;;;;;;;0.50;0.50;;;;;;;4.61;71.20;96174.88;5033504;28;20159;-67
2024/01/28 14:55:46;;;;;;;0.50;0.50;;;;;;;4.78;71.45;96203.66;5042053;28;20170;-68
2024/01/28 14:58:12;;;;;;;0.60;0.60;;;;;;;4.81;71.14;96194.75;5040139;28;20259;-67
2024/01/28 15:00:37;;;;;;;0.50;0.50;;;;;;;4.83;71.40;96203.25;5035287;28;20553;-67
2024/01/28 15:03:03;;;;;;;0.40;0.40;;;;;;;4.69;71.60;96178.44;5045916;28;20240;-67
2024/01/28 15:05:28;;;;;;;0.90;0.90;;;;;;;4.41;72.11;96161.88;5033893;28;20796;-70
2024/01/28 15:07:54;;;;;;;5.30;2.37;;;;;;;4.68;71.89;96202.84;5041162;28;20739;-68
2024/01/28 15:10:20;;;;;;;0.60;0.60;;;;;;;4.67;72.07;96209.03;5041071;28;20183;-68
2024/01/28 15:12:45;;;;;;;0.40;0.40;;;;;;;4.66;72.21;96210.03;5033912;28;20173;-68
2024/01/28 15:15:11;;;;;;;0.40;0.40;;;;;;;4.60;72.51;96202.75;5045907;28;20639;-70
2024/01/28 15:17:36;;;;;;;0.50;0.50;;;;;;;4.58;72.83;96204.69;5035025;28;20205;-67
2024/01/28 15:20:03;;;;;;;0.40;0.40;;;;;;;4.59;72.48;96193.28;5039762;28;20617;-67
2024/01/28 15:22:30;;;;;;;0.70;0.70;;;;;;;4.71;72.52;96218.22;5042469;28;20351;-67
2024/01/28 15:24:55;;;;;;;0.40;0.40;;;;;;;4.75;72.53;96213.56;5032236;28;20282;-67
2024/01/28 15:27:21;;;;;;;0.83;0.83;;;;;;;4.60;72.93;96218.38;5045398;28;20178;-67
2024/01/28 15:29:48;;;;;;;0.50;0.50;;;;;;;4.51;73.45;96214.00;5018848;28;20174;-67
2024/01/28 15:32:14;;;;;;;0.90;0.90;;;;;;;4.58;73.56;96222.13;5037730;28;20175;-68
2024/01/28 15:34:39;;;;;;;0.40;0.40;;;;;;;4.58;73.44;96225.56;5043759;28;20178;-67
2024/01/28 15:37:04;;;;;;;0.40;0.40;;;;;;;4.63;73.14;96231.16;5032670;28;20211;-67
2024/01/28 15:39:30;;;;;;;0.40;0.40;;;;;;;4.53;74.06;96230.34;5043651;28;20659;-68
2024/01/28 15:41:55;;;;;;;1.23;0.70;;;;;;;4.63;73.71;96235.53;5029777;28;20172;-67
2024/01/28 15:44:21;;;;;;;0.40;0.40;;;;;;;4.63;73.58;96236.38;5030131;28;20219;-68
2024/01/28 15:46:47;;;;;;;2.30;2.20;;;;;;;4.61;73.65;96235.69;5029918;28;20207;-68
2024/01/28 15:49:12;;;;;;;0.43;0.43;;;;;;;4.44;74.55;96234.59;5030121;28;20601;-67
2024/01/28 15:51:38;;;;;;;0.40;0.40;;;;;;;4.45;74.57;96235.44;5011896;28;20176;-67
2024/01/28 15:54:04;;;;;;;3.00;2.83;;;;;;;4.49;74.42;96242.03;5029855;28;20203;-68
2024/01/28 15:56:31;;;;;;;0.50;0.50;;;;;;;4.39;74.66;96228.19;5030004;28;20194;-68
2024/01/28 15:58:56;;;;;;;0.43;0.43;;;;;;;4.37;74.64;96222.28;5033578;28;20644;-68
2024/01/28 16:01:22;;;;;;;3.80;2.37;;;;;;;4.44;74.61;96245.03;5034224;28;20230;-69
2024/01/28 16:03:47;;;;;;;0.50;0.50;;;;;;;4.52;74.75;96246.94;5033708;28;20175;-70
2024/01/28 16:06:13;;;;;;;0.50;0.50;;;;;;;4.50;74.83;96249.69;5033520;28;20256;-70
2024/01/28 16:08:38;;;;;;;9.37;8.67;;;;;;;4.30;75.38;96255.06;5041168;28;20210;-69
2024/01/28 16:11:04;;;;;;;1.50;1.40;;;;;;;4.33;75.49;96246.94;5044076;28;20175;-69
2024/01/28 16:13:29;;;;;;;0.80;0.80;;;;;;;4.29;75.75;96256.84;5044271;28;20670;-69
2024/01/28 16:15:55;;;;;;;0.40;0.40;;;;;;;4.37;75.93;96258.75;5025131;28;20229;-70
2024/01/28 16:18:21;;;;;;;0.40;0.40;;;;;;;4.27;76.25;96263.16;5042524;28;20171;-70
2024/01/28 16:20:46;;;;;;;0.60;0.60;;;;;;;4.33;76.12;96263.41;5043903;28;20569;-71
2024/01/28 16:23:13;;;;;;;3.10;1.37;;;;;;;4.13;76.27;96236.56;5041380;28;20614;-71
2024/01/28 16:25:39;;;;;;;1.00;1.00;;;;;;;4.34;75.89;96264.25;5043392;28;21012;-70
2024/01/28 16:28:05;;;;;;;0.40;0.40;;;;;;;4.33;75.91;96263.41;5041803;28;20172;-71
2024/01/28 16:30:30;;;;;;;0.40;0.40;;;;;;;4.42;75.98;96259.16;5042724;28;20499;-71
2024/01/28 16:32:56;;;;;;;0.40;0.40;;;;;;;4.43;75.44;96261.63;5042677;28;20255;-72
2024/01/28 16:35:21;;;;;;;0.50;0.50;;;;;;;4.39;75.64;96275.09;5042193;28;20178;-72
2024/01/28 16:37:47;;;;;;;7.57;5.03;;;;;;;4.18;75.90;96270.84;5043636;28;20171;-72
2024/01/28 16:40:15;;;;;;;0.80;0.80;;;;;;;4.30;76.32;96281.97;5042190;28;20171;-72
2024/01/28 16:42:41;;;;;;;0.97;0.97;;;;;;;4.35;76.33;96277.16;5042103;28;20251;-73
2024/01/28 16:45:08;;;;;;;0.60;0.60;;;;;;;4.39;76.17;96268.09;5043568;28;20191;-70
2024/01/28 16:47:34;;;;;;;0.40;0.40;;;;;;;4.22;76.20;96257.53;5050764;28;20187;-72
2024/01/28 16:50:00;;;;;;;1.03;1.03;;;;;;;4.18;76.54;96264.78;5052654;28;20178;-71
2024/01/28 16:52:25;;;;;;;1.50;1.47;;;;;;;4.29;76.65;96284.69;5050007;28;20722;-70
2024/01/28 16:54:50;;;;;;;0.93;0.93;;;;;;;4.41;76.28;96286.22;5043520;28;20192;-70
2024/01/28 16:57:17;;;;;;;0.40;0.40;;;;;;;4.50;75.87;96283.56;5041452;28;20246;-68
2024/01/28 16:59:42;;;;;;;2.60;2.50;;;;;;;4.54;75.43;96281.53;5042529;28;20560;-68
2024/01/28 17:02:08;;;;;;;0.40;0.40;;;;;;;4.50;75.63;96286.19;5042760;28;20179;-69
2024/01/28 17:04:33;;;;;;;0.40;0.40;;;;;;;4.60;75.48;96295.78;5041386;28;20723;-69
2024/01/28 17:07:00;;;;;;;0.70;0.70;;;;;;;4.40;75.71;96290.59;5042797;28;20187;-69
2024/01/28 17:09:26;;;;;;;0.40;0.40;;;;;;;4.19;76.49;96289.91;5042119;28;20262;-68
2024/01/28 17:11:52;;;;;;;0.40;0.40;;;;;;;4.26;76.69;96295.38;5041660;28;20290;-68
2024/01/28 17:14:17;;;;;;;0.50;0.50;;;;;;;4.31;76.46;96301.03;5035250;28;20214;-68
2024/01/28 17:16:43;;;;;;;1.13;1.13;;;;;;;4.49;75.89;96300.22;5034055;28;20206;-70
2024/01/28 17:19:09;;;;;;;4.17;2.90;;;;;;;4.52;75.37;96305.13;5032460;28;20575;-71
2024/01/28 17:21:35;;;;;;;0.93;0.93;;;;;;;4.49;75.80;96309.81;5032164;28;20250;-71
2024/01/28 17:24:01;;;;;;;2.03;1.93;;;;;;;4.39;75.95;96309.81;5048424;28;20227;-67
2024/01/28 17:26:28;;;;;;;6.10;3.13;;;;;;;4.17;76.83;96295.25;5046488;28;20257;-70
2024/01/28 17:28:56;;;;;;;0.50;0.50;;;;;;;4.26;76.57;96303.19;5032122;28;20267;-70
2024/01/28 17:31:22;;;;;;;4.13;1.50;;;;;;;4.36;76.40;96306.63;5032229;28;20171;-70
2024/01/28 17:33:48;;;;;;;2.13;2.03;;;;;;;4.25;76.44;96296.34;5032031;28;20537;-70
2024/01/28 17:36:14;;;;;;;13.87;12.63;;;;;;;4.11;77.03;96293.19;5032144;28;20164;-70
2024/01/28 17:38:41;;;;;;;1.43;1.43;;;;;;;4.11;77.41;96301.00;5032164;28;20171;-69
2024/01/28 17:41:07;;;;;;;0.87;0.87;;;;;;;4.16;77.40;96314.44;5019566;28;20219;-71
2024/01/28 17:43:32;;;;;;;0.50;0.50;;;;;;;4.25;77.31;96301.56;5042268;28;20172;-70
2024/01/28 17:45:58;;;;;;;0.50;0.50;;;;;;;4.37;76.56;96321.31;5040195;28;20199;-68
2024/01/28 17:48:24;;;;;;;0.40;0.40;;;;;;;4.35;76.73;96312.81;5040703;28;20175;-68
2024/01/28 17:50:49;;;;;;;0.40;0.40;;;;;;;4.32;76.62;96313.09;5040504;28;20190;-70
2024/01/28 17:53:15;;;;;;;2.67;2.57;;;;;;;4.29;76.47;96303.75;5042782;28;20171;-71
2024/01/28 17:55:41;;;;;;;0.50;0.50;;;;;;;4.41;76.21;96320.09;5023216;28;20175;-70
2024/01/28 17:58:07;;;;;;;2.23;2.13;;;;;;;4.46;75.92;96323.13;5041441;28;20216;-71
2024/01/28 18:00:33;;;;;;;0.40;0.40;;;;;;;4.37;76.29;96327.38;5041637;28;20596;-71
2024/01/28 18:02:58;;;;;;;0.80;0.80;;;;;;;4.36;76.24;96324.88;5040089;28;20634;-70
2024/01/28 18:05:24;;;;;;;0.67;0.67;;;;;;;4.38;76.34;96329.00;5041570;28;20216;-71
2024/01/28 18:07:52;;;;;;;0.70;0.70;;;;;;;4.29;76.68;96316.78;5041379;28;20286;-70
2024/01/28 18:10:19;;;;;;;0.90;0.90;;;;;;;4.27;77.01;96323.91;5048072;28;20729;-67
2024/01/28 18:12:46;;;;;;;0.50;0.50;;;;;;;4.33;76.50;96330.38;5050910;28;20231;-68
2024/01/28 18:15:13;;;;;;;0.67;0.67;;;;;;;4.33;76.37;96327.75;5051164;28;20661;-68
2024/01/28 18:17:38;;;;;;;1.20;0.80;;;;;;;4.28;76.23;96316.94;5049998;28;20270;-67
2024/01/28 18:20:05;;;;;;;0.50;0.50;;;;;;;4.40;75.91;96334.09;5032667;28;20191;-67
2024/01/28 18:22:32;;;;;;;0.40;0.40;;;;;;;4.22;76.38;96320.09;5050792;28;20234;-68
2024/01/28 18:24:59;;;;;;;1.67;1.03;;;;;;;4.16;76.53;96329.25;5040645;28;20206;-68
2024/01/28 18:27:27;;;;;;;0.60;0.60;;;;;;;4.16;76.69;96331.84;5047749;28;20213;-68
2024/01/28 18:29:53;;;;;;;3.60;2.43;;;;;;;4.09;76.49;96317.72;5050973;28;20175;-69
2024/01/28 18:32:19;;;;;;;0.50;0.50;;;;;;;4.08;76.79;96335.13;5044961;28;20539;-68
2024/01/28 18:34:46;;;;;;;0.40;0.40;;;;;;;4.07;77.14;96338.69;5045187;28;20645;-68
2024/01/28 18:37:12;;;;;;;0.70;0.70;;;;;;;3.84;77.89;96344.25;5050741;28;20178;-68
2024/01/28 18:39:42;;;;;;;0.50;0.50;;;;;;;3.66;78.71;96347.50;5050685;28;20177;-68
2024/01/28 18:42:08;;;;;;;0.50;0.50;;;;;;;3.68;79.00;96349.97;5044144;28;20645;-68
2024/01/28 18:44:33;;;;;;;1.37;1.27;;;;;;;3.46;79.42;96322.31;5030610;28;20176;-69
2024/01/28 18:46:59;;;;;;;1.40;1.37;;;;;;;3.43;80.59;96351.25;5030657;28;20171;-69
2024/01/28 18:49:25;;;;;;;0.47;0.47;;;;;;;3.32;80.82;96312.28;5030515;28;20182;-68
2024/01/28 18:51:51;;;;;;;1.50;1.33;;;;;;;3.68;80.13;96342.16;5030546;28;20171;-69
2024/01/28 18:54:16;;;;;;;0.70;0.70;;;;;;;3.71;79.57;96331.50;5030788;28;20209;-68
2024/01/28 18:56:43;;;;;;;0.90;0.90;;;;;;;3.69;79.22;96349.00;5030642;28;20298;-68
2024/01/28 18:59:09;;;;;;;0.50;0.50;;;;;;;3.65;79.53;96345.84;5030671;28;20306;-68
2024/01/28 19:01:36;;;;;;;3.90;2.53;;;;;;;3.55;79.69;96325.91;5030395;28;20160;-68
2024/01/28 19:04:02;;;;;;;0.80;0.80;;;;;;;3.58;80.03;96341.28;5030425;28;20325;-68
2024/01/28 19:06:28;;;;;;;1.27;1.27;;;;;;;3.57;79.61;96357.88;5030313;28;20288;-68
2024/01/28 19:08:55;;;;;;;0.87;0.87;;;;;;;3.37;80.07;96320.53;5030806;28;20179;-68
2024/01/28 19:11:22;;;;;;;0.60;0.60;;;;;;;3.72;79.86;96354.75;5030312;28;20206;-68
2024/01/28 19:13:48;;;;;;;0.40;0.40;;;;;;;3.83;79.13;96353.84;5012618;28;20634;-68